Time;durP1;ratioP1;P1;durP2;ratioP2;P2;SDS_P1;SDS_P2;PMS_P1;PMS_P2;Temp;Humidity;BMP_temperature;BMP_pressure;BME280_temperature;BME280_humidity;BME280_pressure;Samples;Min_cycle;Max_cycle;Signal;HPM_P1;HPM_P2
2022/10/19 00:01:05;;;;;;;;;;;;;;;10.18;82.28;101545.19;5031125;28;20028;-83
2022/10/19 00:03:31;;;;;;;;;;;;;;;10.19;81.72;101539.69;5033708;28;19921;-83
2022/10/19 00:05:57;;;;;;;;;;;;;;;10.18;81.61;101546.03;5024258;28;19921;-85
2022/10/19 00:08:22;;;;;;;;;;;;;;;10.14;81.86;101533.91;5020577;28;20308;-88
2022/10/19 00:10:50;;;;;;;;;;;;;;;10.15;81.78;101527.53;5023730;28;19918;-84
2022/10/19 00:13:16;;;;;;;;;;;;;;;10.01;82.67;101533.28;5019513;28;20391;-84
2022/10/19 00:15:43;;;;;;;;;;;;;;;10.04;82.69;101527.63;5038083;28;20007;-85
2022/10/19 00:18:09;;;;;;;;;;;;;;;10.03;82.89;101524.09;5001674;28;20308;-84
2022/10/19 00:20:35;;;;;;;;;;;;;;;10.04;82.81;101524.94;5042298;28;20321;-84
2022/10/19 00:23:00;;;;;;;;;;;;;;;10.08;82.51;101526.38;5023641;28;19921;-86
2022/10/19 00:25:25;;;;;;;;;;;;;;;10.08;82.26;101515.63;5025792;28;19969;-84
2022/10/19 00:27:51;;;;;;;;;;;;;;;9.94;83.04;101512.31;5043149;28;19914;-86
2022/10/19 00:30:16;;;;;;;;;;;;;;;9.89;82.88;101511.03;5029126;28;19933;-85
2022/10/19 00:32:41;;;;;;;;;;;;;;;9.87;82.88;101508.47;5024630;28;20062;-85
2022/10/19 00:35:07;;;;;;;;;;;;;;;9.90;82.63;101510.03;5031392;28;19921;-85
2022/10/19 00:37:32;;;;;;;;;;;;;;;9.91;82.50;101499.16;5042686;28;19987;-84
2022/10/19 00:39:57;;;;;;;;;;;;;;;9.78;82.97;101495.84;5032236;28;19988;-85
2022/10/19 00:42:23;;;;;;;;;;;;;;;9.76;83.01;101488.94;5026927;28;20305;-85
2022/10/19 00:44:48;;;;;;;;;;;;;;;9.78;83.17;101490.50;5017547;28;19985;-85
2022/10/19 00:47:15;;;;;;;;;;;;;;;9.84;82.62;101489.97;5042007;28;19932;-85
2022/10/19 00:49:42;;;;;;;;;;;;;;;9.77;82.29;101483.44;5028323;28;19940;-86
2022/10/19 00:52:10;;;;;;;;;;;;;;;9.81;82.09;101476.81;5044503;28;19943;-85
2022/10/19 00:54:36;;;;;;;;;;;;;;;9.69;82.08;101467.13;5033594;28;19921;-86
2022/10/19 00:57:02;;;;;;;;;;;;;;;9.52;83.11;101466.78;5051733;28;21364;-86
2022/10/19 00:59:30;;;;;;;;;;;;;;;9.49;83.32;101461.69;5008538;28;19921;-85
2022/10/19 01:01:55;;;;;;;;;;;;;;;9.55;83.21;101467.50;5020420;28;19921;-86
2022/10/19 01:04:21;;;;;;;;;;;;;;;9.43;83.65;101464.06;5042398;28;19943;-84
2022/10/19 01:06:46;;;;;;;;;;;;;;;9.37;83.98;101470.81;5044550;28;19917;-86
2022/10/19 01:09:12;;;;;;;;;;;;;;;9.38;83.73;101459.09;5035306;28;19932;-85
2022/10/19 01:11:55;;;;;;;;;;;;;;;9.33;83.77;101455.97;5029505;28;19982;-85
2022/10/19 01:14:39;;;;;;;;;;;;;;;9.44;83.40;101457.72;5004213;28;19921;-85
2022/10/19 01:17:05;;;;;;;;;;;;;;;9.35;83.62;101454.00;5026752;28;19956;-84
2022/10/19 01:19:33;;;;;;;;;;;;;;;9.36;83.51;101441.41;5006960;28;19952;-85
2022/10/19 01:21:58;;;;;;;;;;;;;;;9.38;83.34;101450.19;5028713;28;19963;-86
2022/10/19 01:24:27;;;;;;;;;;;;;;;9.39;83.30;101443.81;5027140;28;19934;-85
2022/10/19 01:27:07;;;;;;;;;;;;;;;9.32;84.31;101443.53;5011173;28;19983;-88
2022/10/19 01:29:42;;;;;;;;;;;;;;;9.30;84.70;101435.59;5028607;28;19967;-85
2022/10/19 01:32:12;;;;;;;;;;;;;;;9.29;85.25;101433.94;5020492;28;19926;-85
2022/10/19 01:34:45;;;;;;;;;;;;;;;9.20;86.32;101428.47;5035350;28;20074;-85
2022/10/19 01:37:14;;;;;;;;;;;;;;;9.21;86.60;101431.03;5005605;28;19921;-85
2022/10/19 01:39:53;;;;;;;;;;;;;;;9.25;86.36;101431.63;5016858;28;19928;-85
2022/10/19 01:42:28;;;;;;;;;;;;;;;9.14;86.79;101423.66;5046882;28;19988;-86
2022/10/19 01:44:59;;;;;;;;;;;;;;;9.16;87.00;101427.06;5033484;28;19921;-86
2022/10/19 01:47:35;;;;;;;;;;;;;;;9.12;87.13;101417.59;5041010;28;20390;-85
2022/10/19 01:50:17;;;;;;;;;;;;;;;9.22;86.81;101410.41;5021398;28;19939;-84
2022/10/19 01:52:42;;;;;;;;;;;;;;;9.29;86.13;101416.94;5017377;28;20737;-84
2022/10/19 01:55:11;;;;;;;;;;;;;;;9.23;86.42;101412.97;5029973;28;19983;-84
2022/10/19 01:57:38;;;;;;;;;;;;;;;9.23;86.59;101406.78;5016397;28;20047;-84
2022/10/19 02:00:06;;;;;;;;;;;;;;;9.18;87.05;101399.13;5016203;28;19921;-85
2022/10/19 02:02:32;;;;;;;;;;;;;;;9.21;86.95;101393.47;5037095;28;19927;-85
2022/10/19 02:04:57;;;;;;;;;;;;;;;9.12;87.52;101398.81;5032951;28;19975;-83
2022/10/19 02:07:23;;;;;;;;;;;;;;;9.17;87.50;101402.78;5042717;28;20357;-86
2022/10/19 02:09:50;;;;;;;;;;;;;;;9.22;87.43;101400.53;5026861;28;20250;-86
2022/10/19 02:12:15;;;;;;;;;;;;;;;9.20;87.60;101397.16;5041636;28;19986;-85
2022/10/19 02:14:45;;;;;;;;;;;;;;;9.20;87.61;101397.16;5011413;28;20388;-83
2022/10/19 02:17:14;;;;;;;;;;;;;;;9.16;87.90;101393.03;5023611;28;20354;-85
2022/10/19 02:19:41;;;;;;;;;;;;;;;9.07;88.00;101396.53;5009422;28;19937;-85
2022/10/19 02:22:08;;;;;;;;;;;;;;;9.06;88.46;101393.00;5036185;28;20046;-84
2022/10/19 02:24:34;;;;;;;;;;;;;;;9.10;88.42;101382.84;5030211;28;20405;-84
2022/10/19 02:27:04;;;;;;;;;;;;;;;9.07;88.24;101386.63;5025679;28;20344;-85
2022/10/19 02:29:30;;;;;;;;;;;;;;;9.11;88.16;101384.53;5013004;28;19952;-84
2022/10/19 02:31:55;;;;;;;;;;;;;;;9.17;87.17;101381.31;5029551;28;19921;-85
2022/10/19 02:34:21;;;;;;;;;;;;;;;9.06;86.75;101381.38;5018337;28;19935;-85
2022/10/19 02:36:46;;;;;;;;;;;;;;;9.12;86.25;101377.34;5020275;28;20397;-85
2022/10/19 02:39:11;;;;;;;;;;;;;;;8.95;86.54;101382.34;5030316;28;19917;-86
2022/10/19 02:41:38;;;;;;;;;;;;;;;8.90;86.68;101373.84;5039948;28;19921;-86
2022/10/19 02:44:09;;;;;;;;;;;;;;;8.85;86.63;101381.44;5026369;28;20006;-86
2022/10/19 02:46:36;;;;;;;;;;;;;;;8.88;85.93;101381.16;5036729;28;19956;-85
2022/10/19 02:49:01;;;;;;;;;;;;;;;8.85;86.01;101389.50;5030651;28;19927;-86
2022/10/19 02:51:31;;;;;;;;;;;;;;;8.68;86.46;101385.56;4993443;28;20039;-85
2022/10/19 02:53:59;;;;;;;;;;;;;;;8.72;86.57;101378.09;5007664;28;19921;-85
2022/10/19 02:56:24;;;;;;;;;;;;;;;8.71;86.50;101384.44;5036062;28;19921;-86
2022/10/19 02:58:49;;;;;;;;;;;;;;;8.63;86.98;101372.53;5008780;28;19995;-85
2022/10/19 03:01:15;;;;;;;;;;;;;;;8.64;87.48;101374.25;5035111;28;19961;-85
2022/10/19 03:03:40;;;;;;;;;;;;;;;8.54;87.82;101367.13;5017367;28;19925;-87
2022/10/19 03:06:06;;;;;;;;;;;;;;;8.56;88.34;101368.69;5034651;28;19928;-84
2022/10/19 03:08:31;;;;;;;;;;;;;;;8.32;88.71;101368.06;5022794;28;19994;-84
2022/10/19 03:10:59;;;;;;;;;;;;;;;8.22;89.46;101355.44;5009290;28;20393;-84
2022/10/19 03:13:25;;;;;;;;;;;;;;;8.04;89.62;101359.66;5023868;28;19925;-84
2022/10/19 03:15:50;;;;;;;;;;;;;;;7.98;89.89;101354.78;5028493;28;20246;-85
2022/10/19 03:18:16;;;;;;;;;;;;;;;8.07;90.05;101359.38;5036335;28;19921;-85
2022/10/19 03:20:41;;;;;;;;;;;;;;;8.08;89.37;101355.75;5043001;28;19921;-84
2022/10/19 03:23:06;;;;;;;;;;;;;;;8.00;89.30;101356.34;5015815;28;19921;-84
2022/10/19 03:25:32;;;;;;;;;;;;;;;7.90;89.48;101357.25;5021598;28;19921;-84
2022/10/19 03:27:58;;;;;;;;;;;;;;;7.88;89.73;101359.22;5008169;28;20341;-83
2022/10/19 03:30:27;;;;;;;;;;;;;;;7.88;89.88;101348.50;5030083;28;20315;-86
2022/10/19 03:32:53;;;;;;;;;;;;;;;7.89;90.34;101350.19;5020622;28;19928;-82
2022/10/19 03:35:23;;;;;;;;;;;;;;;7.79;91.28;101342.91;4997440;28;19943;-86
2022/10/19 03:37:48;;;;;;;;;;;;;;;7.65;92.05;101343.19;5025165;28;19922;-87
2022/10/19 03:40:16;;;;;;;;;;;;;;;7.67;92.67;101338.59;5022471;28;20402;-83
2022/10/19 03:42:44;;;;;;;;;;;;;;;7.73;92.68;101343.44;5038120;28;20009;-84
2022/10/19 03:45:13;;;;;;;;;;;;;;;7.81;92.71;101343.66;5029540;28;19928;-86
2022/10/19 03:47:38;;;;;;;;;;;;;;;7.81;92.02;101342.81;5001665;28;19952;-85
2022/10/19 03:50:04;;;;;;;;;;;;;;;7.57;92.00;101337.63;5025827;28;20417;-85
2022/10/19 03:52:30;;;;;;;;;;;;;;;7.69;91.83;101339.31;5036601;28;20309;-83
2022/10/19 03:54:55;;;;;;;;;;;;;;;7.72;91.56;101335.53;5028393;28;20035;-84
2022/10/19 03:57:27;;;;;;;;;;;;;;;7.78;91.24;101338.56;5013983;28;19921;-84
2022/10/19 03:59:52;;;;;;;;;;;;;;;7.71;90.80;101337.34;5023020;28;19928;-86
2022/10/19 04:02:18;;;;;;;;;;;;;;;7.56;91.46;101327.91;5029471;28;20403;-87
2022/10/19 04:04:44;;;;;;;;;;;;;;;7.76;91.24;101331.63;5037040;28;19991;-92
2022/10/19 04:07:21;;;;;;;;;;;;;;;7.85;90.61;101328.19;5033874;28;19924;-90
2022/10/19 04:09:50;;;;;;;;;;;;;;;7.70;90.77;101326.78;5036195;28;19939;-91
2022/10/19 04:12:17;;;;;;;;;;;;;;;7.56;91.83;101325.22;5023491;28;19917;-90
2022/10/19 04:14:47;;;;;;;;;;;;;;;7.63;92.50;101328.25;5020109;28;19925;-89
2022/10/19 04:17:15;;;;;;;;;;;;;;;7.68;92.53;101329.59;5013258;28;19925;-92
2022/10/19 04:19:41;;;;;;;;;;;;;;;7.82;92.19;101329.31;5011529;28;19921;-90
2022/10/19 04:22:09;;;;;;;;;;;;;;;7.87;92.19;101330.75;5031559;28;19958;-88
2022/10/19 04:24:34;;;;;;;;;;;;;;;7.80;92.79;101328.56;5031121;28;19925;-86
2022/10/19 04:27:00;;;;;;;;;;;;;;;7.90;92.82;101325.13;5017439;28;19917;-85
2022/10/19 04:29:25;;;;;;;;;;;;;;;7.94;92.90;101329.28;5008130;28;20286;-89
2022/10/19 04:31:51;;;;;;;;;;;;;;;7.90;93.76;101325.13;5021937;28;19990;-89
2022/10/19 04:34:16;;;;;;;;;;;;;;;7.96;94.25;101317.44;5012977;28;20012;-85
2022/10/19 04:36:42;;;;;;;;;;;;;;;8.04;94.04;101314.13;5010217;28;19988;-86
2022/10/19 04:39:07;;;;;;;;;;;;;;;7.97;94.17;101313.78;5010209;28;19980;-86
2022/10/19 04:41:41;;;;;;;;;;;;;;;8.09;94.78;101317.25;5008772;28;19929;-85
2022/10/19 04:44:08;;;;;;;;;;;;;;;8.23;94.29;101314.25;5010133;28;19922;-86
2022/10/19 04:46:33;;;;;;;;;;;;;;;8.15;94.02;101311.41;5008950;28;19971;-87
2022/10/19 04:48:59;;;;;;;;;;;;;;;8.14;93.52;101306.16;5003237;28;20362;-86
2022/10/19 04:51:24;;;;;;;;;;;;;;;8.06;94.09;101298.78;5008402;28;20377;-87
2022/10/19 04:53:52;;;;;;;;;;;;;;;7.93;94.02;101304.28;5023311;28;20304;-86
2022/10/19 04:56:24;;;;;;;;;;;;;;;7.92;94.42;101301.78;5009867;28;19921;-86
2022/10/19 04:58:50;;;;;;;;;;;;;;;7.92;94.33;101304.44;5034816;28;19960;-84
2022/10/19 05:01:19;;;;;;;;;;;;;;;7.95;94.31;101296.16;5009774;28;20031;-88
2022/10/19 05:03:44;;;;;;;;;;;;;;;8.01;94.30;101296.50;5009655;28;19925;-86
2022/10/19 05:06:10;;;;;;;;;;;;;;;8.03;94.34;101293.69;5019334;28;19922;-86
2022/10/19 05:08:36;;;;;;;;;;;;;;;8.08;94.11;101288.78;5015063;28;20048;-85
2022/10/19 05:11:03;;;;;;;;;;;;;;;8.29;93.95;101287.94;5012375;28;19928;-87
2022/10/19 05:13:30;;;;;;;;;;;;;;;8.34;93.20;101291.09;5016477;28;20080;-84
2022/10/19 05:15:56;;;;;;;;;;;;;;;8.37;92.70;101296.19;5021110;28;19933;-84
2022/10/19 05:18:23;;;;;;;;;;;;;;;8.35;92.76;101295.44;4997815;28;19929;-85
2022/10/19 05:20:48;;;;;;;;;;;;;;;8.49;92.14;101300.50;5016707;28;20297;-86
2022/10/19 05:23:14;;;;;;;;;;;;;;;8.56;91.46;101296.31;4997179;28;19922;-86
2022/10/19 05:25:44;;;;;;;;;;;;;;;8.64;91.22;101301.03;5019985;28;19935;-86
2022/10/19 05:28:10;;;;;;;;;;;;;;;8.72;90.44;101297.69;4993357;28;19926;-85
2022/10/19 05:30:37;;;;;;;;;;;;;;;8.64;89.83;101304.56;4997919;28;20280;-84
2022/10/19 05:33:03;;;;;;;;;;;;;;;8.85;89.59;101304.53;5016473;28;19922;-88
2022/10/19 05:35:28;;;;;;;;;;;;;;;8.98;89.80;101306.97;5027621;28;20283;-85
2022/10/19 05:37:55;;;;;;;;;;;;;;;9.09;89.19;101306.88;5014503;28;19928;-84
2022/10/19 05:40:21;;;;;;;;;;;;;;;9.00;88.15;101299.63;5001877;28;19992;-85
2022/10/19 05:42:46;;;;;;;;;;;;;;;9.10;87.57;101307.72;5022311;28;19943;-83
2022/10/19 05:45:11;;;;;;;;;;;;;;;9.02;87.69;101308.41;5010901;28;20305;-84
2022/10/19 05:47:37;;;;;;;;;;;;;;;9.04;87.56;101309.13;5028740;28;19932;-84
2022/10/19 05:50:05;;;;;;;;;;;;;;;9.06;87.26;101309.84;5004875;28;20012;-90
2022/10/19 05:52:30;;;;;;;;;;;;;;;9.21;86.70;101309.47;4998103;28;20358;-90
2022/10/19 05:54:57;;;;;;;;;;;;;;;9.18;86.69;101304.38;5006282;28;19918;-87
2022/10/19 05:57:24;;;;;;;;;;;;;;;9.40;85.32;101306.81;5015766;28;19918;-90
2022/10/19 05:59:50;;;;;;;;;;;;;;;9.49;84.98;101300.63;5009627;28;19929;-83
2022/10/19 06:02:15;;;;;;;;;;;;;;;9.70;84.42;101311.25;4999222;28;19930;-85
2022/10/19 06:04:41;;;;;;;;;;;;;;;10.01;83.43;101304.94;4997875;28;19933;-85
2022/10/19 06:07:08;;;;;;;;;;;;;;;10.03;83.46;101313.69;4997171;28;20015;-86
2022/10/19 06:09:35;;;;;;;;;;;;;;;10.08;82.74;101309.59;5026867;28;19929;-85
2022/10/19 06:12:01;;;;;;;;;;;;;;;10.32;81.56;101311.00;4993533;28;19918;-86
2022/10/19 06:14:28;;;;;;;;;;;;;;;10.47;80.89;101314.13;5000535;28;19989;-86
2022/10/19 06:16:53;;;;;;;;;;;;;;;10.16;81.66;101306.22;5041248;28;20003;-87
2022/10/19 06:19:18;;;;;;;;;;;;;;;9.91;82.13;101316.50;5021484;28;20365;-88
2022/10/19 06:21:44;;;;;;;;;;;;;;;10.04;82.30;101310.84;5034345;28;19925;-86
2022/10/19 06:24:09;;;;;;;;;;;;;;;10.13;81.62;101306.47;5042222;28;19936;-87
2022/10/19 06:26:35;;;;;;;;;;;;;;;10.23;81.88;101312.72;5036827;28;19913;-83
2022/10/19 06:29:00;;;;;;;;;;;;;;;10.11;81.71;101297.69;5029806;28;19921;-84
2022/10/19 06:31:27;;;;;;;;;;;;;;;10.03;82.76;101300.25;5053117;28;19993;-84
2022/10/19 06:33:56;;;;;;;;;;;;;;;10.17;81.55;101302.53;5033801;28;19928;-87
2022/10/19 06:36:22;;;;;;;;;;;;;;;10.28;81.83;101305.09;5036657;28;19917;-86
2022/10/19 06:38:47;;;;;;;;;;;;;;;10.30;81.24;101303.13;5048197;28;20026;-90
2022/10/19 06:41:13;;;;;;;;;;;;;;;10.31;80.83;101296.72;5035498;28;20023;-86
2022/10/19 06:43:41;;;;;;;;;;;;;;;10.54;81.10;101304.47;5028842;28;19964;-88
2022/10/19 06:46:08;;;;;;;;;;;;;;;11.02;79.81;101294.53;5024512;28;19924;-84
2022/10/19 06:48:33;;;;;;;;;;;;;;;11.42;78.79;101286.09;5044034;28;20287;-86
2022/10/19 06:50:59;;;;;;;;;;;;;;;11.64;77.03;101286.69;5030050;28;20405;-85
2022/10/19 06:53:24;;;;;;;;;;;;;;;11.78;74.94;101280.78;5028231;28;19928;-86
2022/10/19 06:55:52;;;;;;;;;;;;;;;12.27;73.22;101283.06;5032671;28;19975;-88
2022/10/19 06:58:17;;;;;;;;;;;;;;;12.51;71.84;101280.56;5028767;28;19932;-87
2022/10/19 07:00:43;;;;;;;;;;;;;;;12.43;72.00;101291.28;5048227;28;19905;-84
2022/10/19 07:03:08;;;;;;;;;;;;;;;12.76;71.59;101289.66;5054910;28;19972;-87
2022/10/19 07:05:35;;;;;;;;;;;;;;;12.74;70.70;101291.66;5008845;28;20017;-85
2022/10/19 07:08:00;;;;;;;;;;;;;;;12.48;71.80;101282.72;5046468;28;19925;-84
2022/10/19 07:10:26;;;;;;;;;;;;;;;12.18;72.15;101268.69;5042035;28;19921;-86
2022/10/19 07:12:53;;;;;;;;;;;;;;;12.52;71.24;101278.69;5044310;28;20193;-87
2022/10/19 07:15:18;;;;;;;;;;;;;;;12.10;72.36;101271.31;5020487;28;19924;-85
2022/10/19 07:17:46;;;;;;;;;;;;;;;12.63;71.83;101270.34;5013698;28;19929;-86
2022/10/19 07:20:13;;;;;;;;;;;;;;;13.21;69.46;101269.59;5039804;28;19992;-90
2022/10/19 07:22:39;;;;;;;;;;;;;;;13.34;68.96;101274.56;5018636;28;19921;-88
2022/10/19 07:25:04;;;;;;;;;;;;;;;13.19;69.04;101277.03;5028262;28;20374;-90
2022/10/19 07:27:31;;;;;;;;;;;;;;;13.65;67.82;101271.25;5031088;28;19983;-92
2022/10/19 07:29:56;;;;;;;;;;;;;;;14.22;66.19;101262.34;5025724;28;19941;-90
2022/10/19 07:32:21;;;;;;;;;;;;;;;14.33;64.88;101262.84;5030625;28;19928;-90
2022/10/19 07:34:47;;;;;;;;;;;;;;;14.71;64.42;101256.91;5018403;28;19921;-91
2022/10/19 07:37:14;;;;;;;;;;;;;;;15.33;62.89;101248.00;5033224;28;20008;-92
2022/10/19 07:39:47;;;;;;;;;;;;;;;15.87;60.68;101249.88;5009525;28;19990;-91
2022/10/19 07:42:13;;;;;;;;;;;;;;;16.92;57.23;101239.00;5028371;28;19943;-88
2022/10/19 07:44:38;;;;;;;;;;;;;;;17.83;54.73;101244.06;5011257;28;20393;-90
2022/10/19 07:47:05;;;;;;;;;;;;;;;18.31;52.49;101238.81;5032384;28;19975;-89
2022/10/19 07:49:33;;;;;;;;;;;;;;;19.32;50.14;101235.63;5008081;28;20002;-91
2022/10/19 07:51:58;;;;;;;;;;;;;;;19.95;47.93;101235.38;5023846;28;19922;-85
2022/10/19 07:54:26;;;;;;;;;;;;;;;20.24;47.41;101228.63;5029330;28;20396;-86
2022/10/19 07:56:52;;;;;;;;;;;;;;;20.91;45.46;101215.72;5010774;28;19959;-85
2022/10/19 07:59:18;;;;;;;;;;;;;;;22.13;42.74;101207.41;5023218;28;20389;-89
2022/10/19 08:01:44;;;;;;;;;;;;;;;23.98;39.10;101210.84;5021604;28;19924;-88
2022/10/19 08:04:11;;;;;;;;;;;;;;;24.65;37.28;101205.00;5007029;28;20362;-87
2022/10/19 08:06:40;;;;;;;;;;;;;;;25.26;35.80;101205.44;5029806;28;19921;-85
2022/10/19 08:09:07;;;;;;;;;;;;;;;25.03;35.91;101204.44;5023225;28;20065;-86
2022/10/19 08:11:32;;;;;;;;;;;;;;;26.05;34.22;101199.16;5029746;28;20308;-86
2022/10/19 08:13:58;;;;;;;;;;;;;;;26.36;33.13;101200.47;5020967;28;19922;-87
2022/10/19 08:16:35;;;;;;;;;;;;;;;26.53;33.02;101197.69;5029158;28;20462;-86
2022/10/19 08:19:02;;;;;;;;;;;;;;;26.74;32.42;101196.91;5007310;28;19975;-88
2022/10/19 08:21:28;;;;;;;;;;;;;;;27.70;30.93;101195.50;5013209;28;20067;-88
2022/10/19 08:23:54;;;;;;;;;;;;;;;28.37;29.87;101180.25;5009692;28;20020;-89
2022/10/19 08:26:19;;;;;;;;;;;;;;;28.65;29.16;101186.53;5011398;28;19921;-88
2022/10/19 08:28:47;;;;;;;;;;;;;;;28.55;29.11;101178.19;5042500;28;19921;-85
2022/10/19 08:31:15;;;;;;;;;;;;;;;28.66;29.13;101177.13;5019251;28;19976;-84
2022/10/19 08:33:40;;;;;;;;;;;;;;;29.31;28.19;101174.03;5028865;28;19928;-86
2022/10/19 08:36:06;;;;;;;;;;;;;;;28.21;29.61;101175.72;5018547;28;19917;-85
2022/10/19 08:38:32;;;;;;;;;;;;;;;29.93;27.19;101180.50;5008324;28;20069;-84
2022/10/19 08:40:58;;;;;;;;;;;;;;;30.63;26.21;101164.00;5031498;28;19925;-86
2022/10/19 08:43:32;;;;;;;;;;;;;;;31.08;25.81;101164.91;5030365;28;19921;-85
2022/10/19 08:46:15;;;;;;;;;;;;;;;32.16;24.11;101151.84;5043100;28;19924;-86
2022/10/19 08:48:42;;;;;;;;;;;;;;;32.70;23.43;101157.38;5042956;28;19921;-85
2022/10/19 08:51:09;;;;;;;;;;;;;;;34.14;22.57;101148.50;5016226;28;19962;-85
2022/10/19 08:53:36;;;;;;;;;;;;;;;34.48;21.45;101150.88;4994665;28;19931;-88
2022/10/19 08:56:01;;;;;;;;;;;;;;;35.27;20.48;101151.72;5028364;28;19927;-85
2022/10/19 08:58:51;;;;;;;;;;;;;;;35.81;19.73;101149.84;5030493;28;20409;-86
2022/10/19 09:01:27;;;;;;;;;;;;;;;37.23;18.39;101145.22;5007587;28;20338;-85
2022/10/19 09:03:58;;;;;;;;;;;;;;;37.83;17.79;101127.50;5010128;28;20032;-85
2022/10/19 09:06:37;;;;;;;;;;;;;;;37.93;17.38;101138.38;5027105;28;19921;-84
2022/10/19 09:09:02;;;;;;;;;;;;;;;38.19;16.83;101137.50;5024029;28;20005;-85
2022/10/19 09:11:28;;;;;;;;;;;;;;;37.91;16.85;101128.63;5010879;28;19968;-84
2022/10/19 09:13:58;;;;;;;;;;;;;;;38.79;16.43;101136.31;5009671;28;19922;-85
2022/10/19 09:16:23;;;;;;;;;;;;;;;38.36;16.41;101128.16;5015002;28;19921;-84
2022/10/19 09:18:49;;;;;;;;;;;;;;;39.17;15.97;101123.34;5011299;28;20313;-84
2022/10/19 09:21:19;;;;;;;;;;;;;;;40.08;15.24;101124.22;5011259;28;19917;-84
2022/10/19 09:24:16;;;;;;;;;;;;;;;40.17;15.28;101120.47;5043201;28;19921;-84
2022/10/19 09:26:51;;;;;;;;;;;;;;;41.01;13.97;101117.94;5029424;28;19917;-85
2022/10/19 09:29:27;;;;;;;;;;;;;;;40.17;14.54;101114.84;5044084;28;19948;-84
2022/10/19 09:31:55;;;;;;;;;;;;;;;40.10;14.95;101110.63;5037540;28;20393;-85
2022/10/19 09:34:26;;;;;;;;;;;;;;;40.98;14.41;101104.56;5041011;28;20245;-84
2022/10/19 09:36:52;;;;;;;;;;;;;;;41.50;13.50;101091.56;5032093;28;19917;-85
2022/10/19 09:39:19;;;;;;;;;;;;;;;40.41;14.51;101091.50;5045439;28;19986;-85
2022/10/19 09:41:51;;;;;;;;;;;;;;;39.08;15.01;101092.50;5045697;28;19925;-85
2022/10/19 09:44:16;;;;;;;;;;;;;;;39.65;14.93;101082.53;5027571;28;19928;-85
2022/10/19 09:46:51;;;;;;;;;;;;;;;40.64;14.40;101081.38;5028251;28;19921;-85
2022/10/19 09:49:18;;;;;;;;;;;;;;;40.54;14.05;101078.25;5028670;28;19943;-85
2022/10/19 09:51:49;;;;;;;;;;;;;;;40.98;13.56;101078.38;5044167;28;20415;-84
2022/10/19 09:54:33;;;;;;;;;;;;;;;40.91;13.73;101081.81;5011751;28;19956;-85
2022/10/19 09:56:58;;;;;;;;;;;;;;;41.64;13.34;101069.38;5026718;28;19947;-84
2022/10/19 09:59:27;;;;;;;;;;;;;;;41.17;13.21;101061.66;5036279;28;19921;-88
2022/10/19 10:02:03;;;;;;;;;;;;;;;40.78;13.46;101058.47;5039971;28;19917;-84
2022/10/19 10:04:29;;;;;;;;;;;;;;;39.58;14.21;101060.56;5025502;28;19921;-85
2022/10/19 10:06:56;;;;;;;;;;;;;;;39.15;14.46;101058.19;5041205;28;19924;-86
2022/10/19 10:09:22;;;;;;;;;;;;;;;38.97;14.96;101049.13;5044886;28;19921;-85
2022/10/19 10:11:48;;;;;;;;;;;;;;;38.11;15.19;101040.09;5047949;28;19928;-86
2022/10/19 10:14:20;;;;;;;;;;;;;;;38.19;15.17;101022.41;5044414;28;19921;-85
2022/10/19 10:16:45;;;;;;;;;;;;;;;37.23;15.30;101019.06;5034100;28;20393;-85
2022/10/19 10:19:13;;;;;;;;;;;;;;;36.71;15.98;101020.78;5019177;28;19932;-86
2022/10/19 10:21:46;;;;;;;;;;;;;;;36.22;16.43;101020.03;5037683;28;19928;-89
2022/10/19 10:24:11;;;;;;;;;;;;;;;36.81;15.74;101007.56;5043623;28;19996;-84
2022/10/19 10:26:40;;;;;;;;;;;;;;;37.78;14.99;101001.44;5042865;28;19917;-87
2022/10/19 10:29:18;;;;;;;;;;;;;;;38.30;14.90;101012.38;5027855;28;20369;-86
2022/10/19 10:31:45;;;;;;;;;;;;;;;37.47;15.02;101002.53;5026191;28;19921;-85
2022/10/19 10:34:10;;;;;;;;;;;;;;;36.83;15.73;100994.06;5014136;28;20024;-86
2022/10/19 10:36:36;;;;;;;;;;;;;;;36.21;16.17;100981.97;5008832;28;20423;-87
2022/10/19 10:39:07;;;;;;;;;;;;;;;35.08;17.08;100982.25;5008231;28;19972;-88
2022/10/19 10:41:37;;;;;;;;;;;;;;;34.29;18.14;100981.91;5022657;28;20004;-87
2022/10/19 10:44:05;;;;;;;;;;;;;;;35.27;17.01;100967.28;4998040;28;19921;-87
2022/10/19 10:47:13;;;;;;;;;;;;;;;35.30;17.53;100966.63;5028097;28;19921;-85
2022/10/19 10:49:40;;;;;;;;;;;;;;;35.93;16.99;100957.03;5023569;28;20024;-87
2022/10/19 10:52:07;;;;;;;;;;;;;;;34.87;17.14;100964.38;5023871;28;19921;-90
2022/10/19 10:54:34;;;;;;;;;;;;;;;34.09;17.77;100960.81;5020024;28;19925;-88
2022/10/19 10:57:17;;;;;;;;;;;;;;;34.28;17.60;100949.56;5029992;28;19925;-85
2022/10/19 10:59:48;;;;;;;;;;;;;;;35.02;17.16;100946.38;5005923;28;20456;-86
2022/10/19 11:02:29;;;;;;;;;;;;;;;34.79;16.42;100948.38;5013343;28;19938;-86
2022/10/19 11:04:57;;;;;;;;;;;;;;;35.24;16.18;100942.78;5021746;28;19921;-86
2022/10/19 11:07:24;;;;;;;;;;;;;;;34.28;16.33;100935.59;5004273;28;19984;-85
2022/10/19 11:09:52;;;;;;;;;;;;;;;34.87;16.23;100920.50;5023344;28;19951;-87
2022/10/19 11:12:18;;;;;;;;;;;;;;;34.46;15.95;100932.66;5011265;28;19917;-85
2022/10/19 11:14:56;;;;;;;;;;;;;;;33.84;16.40;100921.22;5014033;28;19988;-86
2022/10/19 11:17:25;;;;;;;;;;;;;;;33.71;16.43;100919.25;5032091;28;19921;-88
2022/10/19 11:19:51;;;;;;;;;;;;;;;33.69;16.64;100925.13;5008794;28;20348;-86
2022/10/19 11:22:30;;;;;;;;;;;;;;;33.20;17.44;100913.53;5046308;28;19921;-85
2022/10/19 11:25:08;;;;;;;;;;;;;;;31.73;18.74;100909.88;5019007;28;20061;-87
2022/10/19 11:27:39;;;;;;;;;;;;;;;31.77;18.77;100904.53;5040675;28;19964;-86
2022/10/19 11:30:29;;;;;;;;;;;;;;;32.17;18.56;100903.22;5026427;28;19921;-87
2022/10/19 11:33:01;;;;;;;;;;;;;;;32.46;18.26;100899.44;5030917;28;19917;-87
2022/10/19 11:35:29;;;;;;;;;;;;;;;33.01;18.15;100896.88;5022382;28;19944;-86
2022/10/19 11:37:55;;;;;;;;;;;;;;;32.82;17.57;100906.41;5019848;28;19980;-85
2022/10/19 11:40:26;;;;;;;;;;;;;;;31.76;18.70;100900.94;5022827;28;19925;-87
2022/10/19 11:43:02;;;;;;;;;;;;;;;31.25;19.12;100904.28;5012803;28;19928;-86
2022/10/19 11:45:33;;;;;;;;;;;;;;;30.82;19.53;100901.34;5026854;28;20000;-86
2022/10/19 11:48:02;;;;;;;;;;;;;;;29.22;21.11;100906.03;5013191;28;19921;-85
2022/10/19 11:50:31;;;;;;;;;;;;;;;29.22;21.42;100892.19;5021288;28;20360;-87
2022/10/19 11:53:11;;;;;;;;;;;;;;;28.71;22.28;100895.00;5028809;28;19952;-88
2022/10/19 11:55:42;;;;;;;;;;;;;;;28.45;21.97;100890.50;5023734;28;19917;-90
2022/10/19 11:58:26;;;;;;;;;;;;;;;27.81;20.34;100892.53;5011746;28;20356;-86
2022/10/19 12:00:57;;;;;;;;;;;;;;;27.23;17.24;100878.75;5014554;28;19929;-87
2022/10/19 12:03:41;;;;;;;;;;;;;;;26.80;23.15;100885.28;5010234;28;19921;-88
2022/10/19 12:06:11;;;;;;;;;;;;;;;26.95;24.14;100882.66;5028622;28;19929;-87
2022/10/19 12:08:45;;;;;;;;;;;;;;;26.82;23.14;100872.06;5026611;28;20336;-87
2022/10/19 12:11:26;;;;;;;;;;;;;;;26.67;19.18;100870.88;5037854;28;19917;-88
2022/10/19 12:13:57;;;;;;;;;;;;;;;26.98;17.93;100870.28;5030020;28;19936;-85
2022/10/19 12:16:23;;;;;;;;;;;;;;;26.39;16.92;100868.38;5016662;28;19956;-93
2022/10/19 12:18:50;;;;;;;;;;;;;;;26.49;16.92;100858.25;5037807;28;20007;-87
2022/10/19 12:21:43;;;;;;;;;;;;;;;26.14;17.36;100864.28;5031850;28;19917;-87
2022/10/19 12:24:12;;;;;;;;;;;;;;;26.11;17.97;100862.88;5033976;28;19917;-85
2022/10/19 12:26:38;;;;;;;;;;;;;;;25.79;18.96;100853.66;5029075;28;19912;-85
2022/10/19 12:29:05;;;;;;;;;;;;;;;25.74;18.51;100851.69;5054454;28;19997;-86
2022/10/19 12:31:30;;;;;;;;;;;;;;;25.77;18.92;100856.66;5044824;28;19917;-85
2022/10/19 12:34:14;;;;;;;;;;;;;;;25.92;19.08;100853.31;5027857;28;19944;-86
2022/10/19 12:36:58;;;;;;;;;;;;;;;25.85;19.82;100847.97;5031356;28;20425;-85
2022/10/19 12:39:32;;;;;;;;;;;;;;;25.86;19.30;100844.13;5029954;28;19978;-88
2022/10/19 12:42:16;;;;;;;;;;;;;;;25.57;19.81;100850.94;5031285;28;20381;-87
2022/10/19 12:44:54;;;;;;;;;;;;;;;25.24;20.45;100847.19;5035694;28;19928;-84
2022/10/19 12:47:21;;;;;;;;;;;;;;;25.01;20.89;100850.97;5029328;28;19940;-83